sensor_id;sensor_type;location;lat;lon;timestamp;P1;durP1;ratioP1;P2;durP2;ratioP2
295;SDS011;132;48.770;9.200;2024-01-30T00:02:07;10.43;;;6.30;;
295;SDS011;132;48.770;9.200;2024-01-30T00:04:54;9.75;;;6.28;;
295;SDS011;132;48.770;9.200;2024-01-30T00:07:40;13.27;;;6.15;;
295;SDS011;132;48.770;9.200;2024-01-30T00:10:27;10.95;;;6.32;;
295;SDS011;132;48.770;9.200;2024-01-30T00:13:14;12.02;;;5.95;;
295;SDS011;132;48.770;9.200;2024-01-30T00:16:03;11.95;;;5.93;;
295;SDS011;132;48.770;9.200;2024-01-30T00:18:51;9.30;;;5.75;;
295;SDS011;132;48.770;9.200;2024-01-30T00:21:37;9.80;;;6.13;;
295;SDS011;132;48.770;9.200;2024-01-30T00:24:25;13.70;;;6.80;;
295;SDS011;132;48.770;9.200;2024-01-30T00:27:11;11.02;;;6.40;;
295;SDS011;132;48.770;9.200;2024-01-30T00:29:58;9.30;;;5.43;;
295;SDS011;132;48.770;9.200;2024-01-30T00:32:44;9.80;;;5.75;;
295;SDS011;132;48.770;9.200;2024-01-30T00:35:31;12.07;;;5.90;;
295;SDS011;132;48.770;9.200;2024-01-30T00:38:18;12.15;;;5.60;;
295;SDS011;132;48.770;9.200;2024-01-30T00:41:04;8.70;;;5.70;;
295;SDS011;132;48.770;9.200;2024-01-30T00:43:51;7.60;;;5.20;;
295;SDS011;132;48.770;9.200;2024-01-30T00:46:37;9.45;;;5.43;;
295;SDS011;132;48.770;9.200;2024-01-30T00:49:24;9.15;;;5.00;;
295;SDS011;132;48.770;9.200;2024-01-30T00:52:11;8.68;;;5.20;;
295;SDS011;132;48.770;9.200;2024-01-30T00:54:58;8.13;;;5.00;;
295;SDS011;132;48.770;9.200;2024-01-30T00:57:45;8.15;;;4.88;;
295;SDS011;132;48.770;9.200;2024-01-30T01:00:32;9.35;;;5.30;;
295;SDS011;132;48.770;9.200;2024-01-30T01:03:18;9.35;;;5.07;;
295;SDS011;132;48.770;9.200;2024-01-30T01:06:05;9.48;;;5.80;;
295;SDS011;132;48.770;9.200;2024-01-30T01:08:52;9.88;;;5.50;;
295;SDS011;132;48.770;9.200;2024-01-30T01:11:38;12.18;;;5.88;;
295;SDS011;132;48.770;9.200;2024-01-30T01:14:25;7.65;;;5.00;;
295;SDS011;132;48.770;9.200;2024-01-30T01:17:12;9.48;;;5.75;;
295;SDS011;132;48.770;9.200;2024-01-30T01:19:58;7.32;;;5.00;;
295;SDS011;132;48.770;9.200;2024-01-30T01:22:45;9.63;;;5.72;;
295;SDS011;132;48.770;9.200;2024-01-30T01:25:31;9.27;;;5.22;;
295;SDS011;132;48.770;9.200;2024-01-30T01:28:18;8.32;;;5.63;;
295;SDS011;132;48.770;9.200;2024-01-30T01:31:05;8.45;;;5.20;;
295;SDS011;132;48.770;9.200;2024-01-30T01:33:51;9.13;;;5.45;;
295;SDS011;132;48.770;9.200;2024-01-30T01:36:39;9.45;;;5.85;;
295;SDS011;132;48.770;9.200;2024-01-30T01:39:25;10.93;;;5.60;;
295;SDS011;132;48.770;9.200;2024-01-30T01:42:12;10.00;;;5.20;;
295;SDS011;132;48.770;9.200;2024-01-30T01:44:58;10.43;;;6.00;;
295;SDS011;132;48.770;9.200;2024-01-30T01:47:46;8.77;;;5.63;;
295;SDS011;132;48.770;9.200;2024-01-30T01:50:35;9.13;;;5.80;;
295;SDS011;132;48.770;9.200;2024-01-30T01:53:22;8.77;;;5.53;;
295;SDS011;132;48.770;9.200;2024-01-30T01:56:09;17.80;;;5.97;;
295;SDS011;132;48.770;9.200;2024-01-30T01:58:56;11.73;;;6.20;;
295;SDS011;132;48.770;9.200;2024-01-30T02:01:46;9.93;;;5.68;;
295;SDS011;132;48.770;9.200;2024-01-30T02:04:35;8.05;;;5.60;;
295;SDS011;132;48.770;9.200;2024-01-30T02:07:22;9.25;;;5.47;;
295;SDS011;132;48.770;9.200;2024-01-30T02:10:09;7.50;;;4.97;;
295;SDS011;132;48.770;9.200;2024-01-30T02:12:56;11.48;;;5.03;;
295;SDS011;132;48.770;9.200;2024-01-30T02:15:42;11.25;;;5.47;;
295;SDS011;132;48.770;9.200;2024-01-30T02:18:29;7.80;;;5.10;;
295;SDS011;132;48.770;9.200;2024-01-30T02:21:35;6.90;;;4.60;;
295;SDS011;132;48.770;9.200;2024-01-30T02:24:22;6.80;;;4.88;;
295;SDS011;132;48.770;9.200;2024-01-30T02:27:09;7.53;;;5.18;;
295;SDS011;132;48.770;9.200;2024-01-30T02:29:56;8.60;;;4.97;;
295;SDS011;132;48.770;9.200;2024-01-30T02:32:42;7.20;;;5.20;;
295;SDS011;132;48.770;9.200;2024-01-30T02:35:29;9.88;;;5.47;;
295;SDS011;132;48.770;9.200;2024-01-30T02:38:15;8.45;;;5.45;;
295;SDS011;132;48.770;9.200;2024-01-30T02:41:02;9.68;;;5.85;;
295;SDS011;132;48.770;9.200;2024-01-30T02:43:49;10.05;;;6.10;;
295;SDS011;132;48.770;9.200;2024-01-30T02:46:36;8.90;;;5.95;;
295;SDS011;132;48.770;9.200;2024-01-30T02:49:22;10.82;;;6.00;;
295;SDS011;132;48.770;9.200;2024-01-30T02:52:09;10.63;;;5.85;;
295;SDS011;132;48.770;9.200;2024-01-30T02:54:56;9.80;;;5.70;;
295;SDS011;132;48.770;9.200;2024-01-30T02:57:42;9.68;;;5.88;;
295;SDS011;132;48.770;9.200;2024-01-30T03:00:29;9.10;;;5.82;;
295;SDS011;132;48.770;9.200;2024-01-30T03:03:15;9.45;;;6.35;;
295;SDS011;132;48.770;9.200;2024-01-30T03:06:02;10.38;;;5.78;;
295;SDS011;132;48.770;9.200;2024-01-30T03:08:49;8.18;;;5.90;;
295;SDS011;132;48.770;9.200;2024-01-30T03:11:36;8.10;;;5.90;;
295;SDS011;132;48.770;9.200;2024-01-30T03:14:22;8.00;;;5.65;;
295;SDS011;132;48.770;9.200;2024-01-30T03:17:09;10.00;;;6.78;;
295;SDS011;132;48.770;9.200;2024-01-30T03:19:55;11.63;;;5.97;;
295;SDS011;132;48.770;9.200;2024-01-30T03:22:42;8.73;;;5.47;;
295;SDS011;132;48.770;9.200;2024-01-30T03:25:29;8.63;;;5.40;;
295;SDS011;132;48.770;9.200;2024-01-30T03:28:15;8.38;;;5.20;;
295;SDS011;132;48.770;9.200;2024-01-30T03:31:02;10.02;;;5.88;;
295;SDS011;132;48.770;9.200;2024-01-30T03:33:48;8.88;;;5.57;;
295;SDS011;132;48.770;9.200;2024-01-30T03:36:35;11.15;;;5.22;;
295;SDS011;132;48.770;9.200;2024-01-30T03:39:22;7.55;;;4.95;;
295;SDS011;132;48.770;9.200;2024-01-30T03:42:09;7.22;;;5.10;;
295;SDS011;132;48.770;9.200;2024-01-30T03:44:56;8.20;;;4.97;;
295;SDS011;132;48.770;9.200;2024-01-30T03:47:43;8.82;;;5.30;;
295;SDS011;132;48.770;9.200;2024-01-30T03:50:29;8.00;;;5.05;;
295;SDS011;132;48.770;9.200;2024-01-30T03:53:17;6.82;;;4.50;;
295;SDS011;132;48.770;9.200;2024-01-30T03:56:03;11.23;;;5.00;;
295;SDS011;132;48.770;9.200;2024-01-30T03:58:50;7.47;;;4.70;;
295;SDS011;132;48.770;9.200;2024-01-30T04:01:37;9.18;;;4.45;;
295;SDS011;132;48.770;9.200;2024-01-30T04:04:23;8.80;;;4.63;;
295;SDS011;132;48.770;9.200;2024-01-30T04:07:10;7.72;;;5.03;;
295;SDS011;132;48.770;9.200;2024-01-30T04:09:57;7.30;;;4.82;;
295;SDS011;132;48.770;9.200;2024-01-30T04:12:43;8.85;;;4.47;;
295;SDS011;132;48.770;9.200;2024-01-30T04:15:30;6.38;;;4.68;;
295;SDS011;132;48.770;9.200;2024-01-30T04:18:16;12.20;;;5.43;;
295;SDS011;132;48.770;9.200;2024-01-30T04:21:03;7.53;;;4.57;;
295;SDS011;132;48.770;9.200;2024-01-30T04:23:53;7.47;;;4.75;;
295;SDS011;132;48.770;9.200;2024-01-30T04:26:39;9.52;;;5.25;;
295;SDS011;132;48.770;9.200;2024-01-30T04:29:26;8.45;;;5.13;;
295;SDS011;132;48.770;9.200;2024-01-30T04:32:12;10.15;;;5.13;;
295;SDS011;132;48.770;9.200;2024-01-30T04:34:59;8.05;;;4.80;;
295;SDS011;132;48.770;9.200;2024-01-30T04:37:46;6.20;;;4.38;;
295;SDS011;132;48.770;9.200;2024-01-30T04:40:32;6.80;;;4.53;;
295;SDS011;132;48.770;9.200;2024-01-30T04:43:19;7.78;;;4.30;;
295;SDS011;132;48.770;9.200;2024-01-30T04:46:06;6.32;;;4.50;;
295;SDS011;132;48.770;9.200;2024-01-30T04:48:52;7.97;;;4.43;;
295;SDS011;132;48.770;9.200;2024-01-30T04:51:39;8.07;;;4.57;;
295;SDS011;132;48.770;9.200;2024-01-30T04:54:25;9.05;;;5.30;;
295;SDS011;132;48.770;9.200;2024-01-30T04:57:12;10.02;;;5.22;;
295;SDS011;132;48.770;9.200;2024-01-30T04:59:59;7.65;;;5.05;;
295;SDS011;132;48.770;9.200;2024-01-30T05:02:45;10.43;;;5.60;;
295;SDS011;132;48.770;9.200;2024-01-30T05:05:32;10.57;;;5.90;;
295;SDS011;132;48.770;9.200;2024-01-30T05:08:19;8.50;;;5.20;;
295;SDS011;132;48.770;9.200;2024-01-30T05:11:05;11.57;;;5.15;;
295;SDS011;132;48.770;9.200;2024-01-30T05:13:52;9.48;;;6.20;;
295;SDS011;132;48.770;9.200;2024-01-30T05:16:39;9.57;;;5.82;;
295;SDS011;132;48.770;9.200;2024-01-30T05:19:25;10.00;;;5.65;;
295;SDS011;132;48.770;9.200;2024-01-30T05:22:12;11.05;;;6.53;;
295;SDS011;132;48.770;9.200;2024-01-30T05:25:01;9.02;;;5.80;;
295;SDS011;132;48.770;9.200;2024-01-30T05:27:48;12.90;;;5.85;;
295;SDS011;132;48.770;9.200;2024-01-30T05:30:34;9.50;;;5.90;;
295;SDS011;132;48.770;9.200;2024-01-30T05:33:21;9.88;;;6.00;;
295;SDS011;132;48.770;9.200;2024-01-30T05:36:08;8.30;;;5.40;;
295;SDS011;132;48.770;9.200;2024-01-30T05:38:57;9.85;;;5.85;;
295;SDS011;132;48.770;9.200;2024-01-30T05:41:44;10.40;;;5.75;;
295;SDS011;132;48.770;9.200;2024-01-30T05:44:30;9.95;;;5.60;;
295;SDS011;132;48.770;9.200;2024-01-30T05:47:17;10.23;;;6.05;;
295;SDS011;132;48.770;9.200;2024-01-30T05:50:04;11.60;;;5.90;;
295;SDS011;132;48.770;9.200;2024-01-30T05:52:51;12.02;;;6.75;;
295;SDS011;132;48.770;9.200;2024-01-30T05:55:38;10.90;;;6.30;;
295;SDS011;132;48.770;9.200;2024-01-30T05:58:24;10.15;;;6.13;;
295;SDS011;132;48.770;9.200;2024-01-30T06:01:11;13.45;;;6.53;;
295;SDS011;132;48.770;9.200;2024-01-30T06:03:57;18.70;;;5.88;;
295;SDS011;132;48.770;9.200;2024-01-30T06:06:44;12.20;;;6.95;;
295;SDS011;132;48.770;9.200;2024-01-30T06:09:31;9.05;;;5.95;;
295;SDS011;132;48.770;9.200;2024-01-30T06:12:18;11.68;;;6.13;;
295;SDS011;132;48.770;9.200;2024-01-30T06:15:04;14.52;;;7.30;;
295;SDS011;132;48.770;9.200;2024-01-30T06:17:52;11.32;;;6.53;;
295;SDS011;132;48.770;9.200;2024-01-30T06:20:39;12.10;;;6.50;;
295;SDS011;132;48.770;9.200;2024-01-30T06:23:25;12.32;;;6.90;;
295;SDS011;132;48.770;9.200;2024-01-30T06:26:12;13.20;;;7.50;;
295;SDS011;132;48.770;9.200;2024-01-30T06:28:59;12.05;;;6.60;;
295;SDS011;132;48.770;9.200;2024-01-30T06:31:45;11.40;;;7.28;;
295;SDS011;132;48.770;9.200;2024-01-30T06:34:32;13.60;;;7.30;;
295;SDS011;132;48.770;9.200;2024-01-30T06:37:18;12.43;;;6.50;;
295;SDS011;132;48.770;9.200;2024-01-30T06:40:05;10.82;;;7.10;;
295;SDS011;132;48.770;9.200;2024-01-30T06:42:52;11.27;;;6.68;;
295;SDS011;132;48.770;9.200;2024-01-30T06:45:39;12.20;;;6.75;;
295;SDS011;132;48.770;9.200;2024-01-30T06:48:26;10.88;;;6.15;;
295;SDS011;132;48.770;9.200;2024-01-30T06:51:13;10.65;;;6.43;;
295;SDS011;132;48.770;9.200;2024-01-30T06:53:59;13.77;;;7.20;;
295;SDS011;132;48.770;9.200;2024-01-30T06:56:46;11.65;;;6.63;;
295;SDS011;132;48.770;9.200;2024-01-30T06:59:33;13.60;;;7.93;;
295;SDS011;132;48.770;9.200;2024-01-30T07:02:19;15.70;;;9.10;;
295;SDS011;132;48.770;9.200;2024-01-30T07:05:06;14.55;;;8.85;;
295;SDS011;132;48.770;9.200;2024-01-30T07:07:53;14.88;;;9.27;;
295;SDS011;132;48.770;9.200;2024-01-30T07:10:40;16.73;;;9.13;;
295;SDS011;132;48.770;9.200;2024-01-30T07:13:27;17.42;;;9.38;;
295;SDS011;132;48.770;9.200;2024-01-30T07:16:14;14.75;;;9.20;;
295;SDS011;132;48.770;9.200;2024-01-30T07:19:01;16.08;;;8.27;;
295;SDS011;132;48.770;9.200;2024-01-30T07:21:48;13.43;;;8.07;;
295;SDS011;132;48.770;9.200;2024-01-30T07:24:35;15.02;;;8.00;;
295;SDS011;132;48.770;9.200;2024-01-30T07:27:21;13.30;;;7.07;;
295;SDS011;132;48.770;9.200;2024-01-30T07:30:08;9.90;;;6.40;;
295;SDS011;132;48.770;9.200;2024-01-30T07:32:55;9.93;;;5.95;;
295;SDS011;132;48.770;9.200;2024-01-30T07:35:41;8.40;;;6.10;;
295;SDS011;132;48.770;9.200;2024-01-30T07:38:28;11.55;;;5.70;;
295;SDS011;132;48.770;9.200;2024-01-30T07:41:17;12.35;;;5.63;;
295;SDS011;132;48.770;9.200;2024-01-30T07:44:04;9.38;;;5.15;;
295;SDS011;132;48.770;9.200;2024-01-30T07:46:51;9.40;;;6.05;;
295;SDS011;132;48.770;9.200;2024-01-30T07:49:40;9.00;;;5.93;;
295;SDS011;132;48.770;9.200;2024-01-30T07:52:27;10.40;;;6.13;;
295;SDS011;132;48.770;9.200;2024-01-30T07:55:14;14.55;;;6.32;;
295;SDS011;132;48.770;9.200;2024-01-30T07:58:01;10.73;;;6.00;;
295;SDS011;132;48.770;9.200;2024-01-30T08:00:48;8.43;;;5.57;;
295;SDS011;132;48.770;9.200;2024-01-30T08:03:34;8.70;;;5.05;;
295;SDS011;132;48.770;9.200;2024-01-30T08:06:22;12.88;;;5.38;;
295;SDS011;132;48.770;9.200;2024-01-30T08:09:08;10.80;;;5.40;;
295;SDS011;132;48.770;9.200;2024-01-30T08:11:55;9.88;;;4.93;;
295;SDS011;132;48.770;9.200;2024-01-30T08:14:42;8.50;;;5.25;;
295;SDS011;132;48.770;9.200;2024-01-30T08:17:28;10.63;;;5.30;;
295;SDS011;132;48.770;9.200;2024-01-30T08:20:15;8.55;;;5.30;;
295;SDS011;132;48.770;9.200;2024-01-30T08:23:02;11.95;;;6.75;;
295;SDS011;132;48.770;9.200;2024-01-30T08:25:49;16.25;;;7.15;;
295;SDS011;132;48.770;9.200;2024-01-30T08:28:36;13.30;;;6.90;;
295;SDS011;132;48.770;9.200;2024-01-30T08:31:22;14.93;;;7.20;;
295;SDS011;132;48.770;9.200;2024-01-30T08:34:09;11.73;;;6.75;;
295;SDS011;132;48.770;9.200;2024-01-30T08:36:56;12.70;;;7.05;;
295;SDS011;132;48.770;9.200;2024-01-30T08:39:43;10.95;;;7.20;;
295;SDS011;132;48.770;9.200;2024-01-30T08:42:30;10.80;;;6.88;;
295;SDS011;132;48.770;9.200;2024-01-30T08:45:16;13.85;;;6.97;;
295;SDS011;132;48.770;9.200;2024-01-30T08:48:03;12.25;;;7.22;;
295;SDS011;132;48.770;9.200;2024-01-30T08:50:50;12.48;;;6.95;;
295;SDS011;132;48.770;9.200;2024-01-30T08:53:37;14.88;;;7.50;;
295;SDS011;132;48.770;9.200;2024-01-30T08:56:23;14.55;;;8.43;;
295;SDS011;132;48.770;9.200;2024-01-30T08:59:10;16.08;;;8.80;;
295;SDS011;132;48.770;9.200;2024-01-30T09:01:57;13.00;;;8.68;;
295;SDS011;132;48.770;9.200;2024-01-30T09:04:44;16.73;;;9.05;;
295;SDS011;132;48.770;9.200;2024-01-30T09:07:30;15.50;;;8.18;;
295;SDS011;132;48.770;9.200;2024-01-30T09:10:17;15.23;;;10.23;;
295;SDS011;132;48.770;9.200;2024-01-30T09:13:04;16.08;;;10.50;;
295;SDS011;132;48.770;9.200;2024-01-30T09:15:50;18.27;;;10.85;;
295;SDS011;132;48.770;9.200;2024-01-30T09:18:37;22.95;;;11.98;;
295;SDS011;132;48.770;9.200;2024-01-30T09:21:23;17.02;;;10.73;;
295;SDS011;132;48.770;9.200;2024-01-30T09:24:10;17.92;;;10.38;;
295;SDS011;132;48.770;9.200;2024-01-30T09:26:57;17.65;;;9.77;;
295;SDS011;132;48.770;9.200;2024-01-30T09:29:43;13.77;;;9.60;;
295;SDS011;132;48.770;9.200;2024-01-30T09:32:30;14.95;;;10.93;;
295;SDS011;132;48.770;9.200;2024-01-30T09:35:16;18.15;;;10.30;;
295;SDS011;132;48.770;9.200;2024-01-30T09:38:03;15.93;;;10.75;;
295;SDS011;132;48.770;9.200;2024-01-30T09:40:51;16.58;;;9.73;;
295;SDS011;132;48.770;9.200;2024-01-30T09:43:42;14.57;;;9.52;;
295;SDS011;132;48.770;9.200;2024-01-30T09:46:37;15.10;;;9.88;;
295;SDS011;132;48.770;9.200;2024-01-30T09:49:24;17.27;;;10.52;;
295;SDS011;132;48.770;9.200;2024-01-30T09:52:12;18.83;;;10.05;;
295;SDS011;132;48.770;9.200;2024-01-30T09:54:59;19.80;;;12.45;;
295;SDS011;132;48.770;9.200;2024-01-30T09:57:47;19.13;;;11.88;;
295;SDS011;132;48.770;9.200;2024-01-30T10:00:33;15.88;;;11.70;;
295;SDS011;132;48.770;9.200;2024-01-30T10:03:20;16.20;;;11.65;;
295;SDS011;132;48.770;9.200;2024-01-30T10:06:07;18.17;;;11.40;;
295;SDS011;132;48.770;9.200;2024-01-30T10:08:54;20.48;;;18.23;;
295;SDS011;132;48.770;9.200;2024-01-30T10:11:41;37.20;;;35.38;;
295;SDS011;132;48.770;9.200;2024-01-30T10:14:28;28.27;;;20.10;;
295;SDS011;132;48.770;9.200;2024-01-30T10:17:14;21.30;;;19.30;;
295;SDS011;132;48.770;9.200;2024-01-30T10:20:03;19.53;;;18.17;;
295;SDS011;132;48.770;9.200;2024-01-30T10:22:51;21.00;;;16.33;;
295;SDS011;132;48.770;9.200;2024-01-30T10:25:37;17.23;;;13.77;;
295;SDS011;132;48.770;9.200;2024-01-30T10:28:26;19.43;;;14.37;;
295;SDS011;132;48.770;9.200;2024-01-30T10:31:18;20.43;;;15.60;;
295;SDS011;132;48.770;9.200;2024-01-30T10:34:05;18.17;;;13.07;;
295;SDS011;132;48.770;9.200;2024-01-30T10:36:55;19.50;;;11.97;;
295;SDS011;132;48.770;9.200;2024-01-30T10:39:52;19.97;;;12.90;;
295;SDS011;132;48.770;9.200;2024-01-30T10:42:43;19.20;;;13.30;;
295;SDS011;132;48.770;9.200;2024-01-30T10:45:31;19.17;;;13.33;;
295;SDS011;132;48.770;9.200;2024-01-30T10:48:18;19.23;;;12.57;;
295;SDS011;132;48.770;9.200;2024-01-30T10:51:12;17.67;;;13.03;;
295;SDS011;132;48.770;9.200;2024-01-30T10:54:00;20.90;;;12.43;;
295;SDS011;132;48.770;9.200;2024-01-30T10:56:48;23.00;;;13.00;;
295;SDS011;132;48.770;9.200;2024-01-30T10:59:35;20.63;;;12.37;;
295;SDS011;132;48.770;9.200;2024-01-30T11:02:23;21.43;;;13.40;;
295;SDS011;132;48.770;9.200;2024-01-30T11:05:11;20.30;;;14.33;;
295;SDS011;132;48.770;9.200;2024-01-30T11:07:58;22.30;;;13.53;;
295;SDS011;132;48.770;9.200;2024-01-30T11:10:48;27.70;;;26.30;;
295;SDS011;132;48.770;9.200;2024-01-30T11:13:35;23.43;;;15.97;;
295;SDS011;132;48.770;9.200;2024-01-30T11:16:22;22.17;;;15.60;;
295;SDS011;132;48.770;9.200;2024-01-30T11:19:12;23.73;;;15.20;;
295;SDS011;132;48.770;9.200;2024-01-30T11:21:59;17.87;;;12.37;;
295;SDS011;132;48.770;9.200;2024-01-30T11:24:46;19.50;;;12.20;;
295;SDS011;132;48.770;9.200;2024-01-30T11:27:33;16.53;;;13.03;;
295;SDS011;132;48.770;9.200;2024-01-30T11:33:14;18.30;;;12.43;;
295;SDS011;132;48.770;9.200;2024-01-30T11:36:00;16.57;;;11.70;;
295;SDS011;132;48.770;9.200;2024-01-30T11:38:53;28.20;;;12.80;;
295;SDS011;132;48.770;9.200;2024-01-30T11:41:40;22.93;;;12.60;;
295;SDS011;132;48.770;9.200;2024-01-30T11:44:27;21.10;;;11.10;;
295;SDS011;132;48.770;9.200;2024-01-30T11:47:14;19.87;;;11.47;;
295;SDS011;132;48.770;9.200;2024-01-30T11:50:02;15.10;;;10.50;;
295;SDS011;132;48.770;9.200;2024-01-30T11:52:49;19.47;;;12.23;;
295;SDS011;132;48.770;9.200;2024-01-30T11:55:36;20.20;;;12.03;;
295;SDS011;132;48.770;9.200;2024-01-30T11:58:26;18.73;;;11.80;;
295;SDS011;132;48.770;9.200;2024-01-30T12:01:13;17.00;;;12.00;;
295;SDS011;132;48.770;9.200;2024-01-30T12:04:00;17.93;;;11.90;;
295;SDS011;132;48.770;9.200;2024-01-30T12:06:50;17.43;;;11.80;;
295;SDS011;132;48.770;9.200;2024-01-30T12:09:37;23.57;;;12.10;;
295;SDS011;132;48.770;9.200;2024-01-30T12:12:27;20.03;;;11.93;;
295;SDS011;132;48.770;9.200;2024-01-30T12:15:15;19.27;;;11.80;;
295;SDS011;132;48.770;9.200;2024-01-30T12:18:06;19.87;;;12.37;;
295;SDS011;132;48.770;9.200;2024-01-30T12:20:57;22.53;;;13.40;;
295;SDS011;132;48.770;9.200;2024-01-30T12:23:47;23.43;;;15.67;;
295;SDS011;132;48.770;9.200;2024-01-30T12:26:34;97.00;;;48.47;;
295;SDS011;132;48.770;9.200;2024-01-30T12:29:21;51.50;;;28.00;;
295;SDS011;132;48.770;9.200;2024-01-30T12:32:08;32.90;;;18.03;;
295;SDS011;132;48.770;9.200;2024-01-30T12:34:55;26.60;;;14.90;;
295;SDS011;132;48.770;9.200;2024-01-30T12:37:43;24.57;;;14.10;;
295;SDS011;132;48.770;9.200;2024-01-30T12:40:33;22.30;;;14.43;;
295;SDS011;132;48.770;9.200;2024-01-30T12:43:23;22.30;;;17.03;;
295;SDS011;132;48.770;9.200;2024-01-30T12:46:10;32.07;;;24.50;;
295;SDS011;132;48.770;9.200;2024-01-30T12:48:57;450.50;;;429.00;;
295;SDS011;132;48.770;9.200;2024-01-30T12:51:43;132.27;;;125.93;;
295;SDS011;132;48.770;9.200;2024-01-30T12:54:30;135.80;;;129.30;;
295;SDS011;132;48.770;9.200;2024-01-30T12:57:17;22.93;;;18.43;;
295;SDS011;132;48.770;9.200;2024-01-30T13:00:04;26.93;;;20.50;;
295;SDS011;132;48.770;9.200;2024-01-30T13:02:54;27.53;;;16.90;;
295;SDS011;132;48.770;9.200;2024-01-30T13:05:40;23.33;;;15.50;;
295;SDS011;132;48.770;9.200;2024-01-30T13:08:28;51.43;;;48.93;;
295;SDS011;132;48.770;9.200;2024-01-30T13:11:15;38.80;;;36.90;;
295;SDS011;132;48.770;9.200;2024-01-30T13:14:01;123.17;;;117.27;;
295;SDS011;132;48.770;9.200;2024-01-30T13:16:49;774.67;;;737.73;;
295;SDS011;132;48.770;9.200;2024-01-30T13:19:36;1049.07;;;998.43;;
295;SDS011;132;48.770;9.200;2024-01-30T13:22:23;776.83;;;739.77;;
295;SDS011;132;48.770;9.200;2024-01-30T13:25:10;1000.37;;;952.70;;
295;SDS011;132;48.770;9.200;2024-01-30T13:27:56;25.67;;;23.50;;
295;SDS011;132;48.770;9.200;2024-01-30T13:30:43;143.30;;;136.43;;
295;SDS011;132;48.770;9.200;2024-01-30T13:33:30;17.10;;;13.40;;
295;SDS011;132;48.770;9.200;2024-01-30T13:36:16;37.20;;;35.40;;
295;SDS011;132;48.770;9.200;2024-01-30T13:39:03;21.80;;;14.23;;
295;SDS011;132;48.770;9.200;2024-01-30T13:41:53;21.27;;;11.80;;
295;SDS011;132;48.770;9.200;2024-01-30T13:44:40;23.47;;;13.40;;
295;SDS011;132;48.770;9.200;2024-01-30T13:47:29;19.70;;;10.30;;
295;SDS011;132;48.770;9.200;2024-01-30T13:50:15;19.30;;;11.00;;
295;SDS011;132;48.770;9.200;2024-01-30T13:53:02;23.20;;;13.17;;
295;SDS011;132;48.770;9.200;2024-01-30T13:55:50;38.20;;;36.30;;
295;SDS011;132;48.770;9.200;2024-01-30T13:58:37;53.13;;;50.57;;
295;SDS011;132;48.770;9.200;2024-01-30T14:01:23;17.10;;;11.53;;
295;SDS011;132;48.770;9.200;2024-01-30T14:04:10;17.90;;;11.37;;
295;SDS011;132;48.770;9.200;2024-01-30T14:06:57;19.30;;;11.67;;
295;SDS011;132;48.770;9.200;2024-01-30T14:09:44;22.57;;;10.60;;
295;SDS011;132;48.770;9.200;2024-01-30T14:12:31;21.37;;;11.83;;
295;SDS011;132;48.770;9.200;2024-01-30T14:15:17;26.23;;;11.63;;
295;SDS011;132;48.770;9.200;2024-01-30T14:18:04;18.13;;;9.70;;
295;SDS011;132;48.770;9.200;2024-01-30T14:20:54;20.73;;;11.07;;
295;SDS011;132;48.770;9.200;2024-01-30T14:23:41;22.40;;;10.80;;
295;SDS011;132;48.770;9.200;2024-01-30T14:26:27;19.70;;;9.73;;
295;SDS011;132;48.770;9.200;2024-01-30T14:29:14;17.80;;;10.67;;
295;SDS011;132;48.770;9.200;2024-01-30T14:32:01;19.27;;;9.77;;
295;SDS011;132;48.770;9.200;2024-01-30T14:34:47;18.47;;;10.57;;
295;SDS011;132;48.770;9.200;2024-01-30T14:37:34;20.13;;;10.83;;
295;SDS011;132;48.770;9.200;2024-01-30T14:40:21;25.13;;;11.70;;
295;SDS011;132;48.770;9.200;2024-01-30T14:43:08;23.20;;;11.10;;
295;SDS011;132;48.770;9.200;2024-01-30T14:45:54;22.73;;;10.27;;
295;SDS011;132;48.770;9.200;2024-01-30T14:48:41;20.77;;;9.63;;
295;SDS011;132;48.770;9.200;2024-01-30T14:51:29;15.83;;;9.60;;
295;SDS011;132;48.770;9.200;2024-01-30T14:54:16;22.10;;;9.50;;
295;SDS011;132;48.770;9.200;2024-01-30T14:57:02;23.47;;;10.00;;
295;SDS011;132;48.770;9.200;2024-01-30T14:59:50;25.00;;;10.07;;
295;SDS011;132;48.770;9.200;2024-01-30T15:02:36;19.13;;;9.50;;
295;SDS011;132;48.770;9.200;2024-01-30T15:05:23;18.30;;;10.27;;
295;SDS011;132;48.770;9.200;2024-01-30T15:08:09;19.90;;;9.60;;
295;SDS011;132;48.770;9.200;2024-01-30T15:10:56;23.23;;;10.73;;
295;SDS011;132;48.770;9.200;2024-01-30T15:13:43;19.77;;;10.33;;
295;SDS011;132;48.770;9.200;2024-01-30T15:16:30;20.87;;;10.40;;
295;SDS011;132;48.770;9.200;2024-01-30T15:19:17;19.83;;;10.77;;
295;SDS011;132;48.770;9.200;2024-01-30T15:22:03;20.67;;;10.37;;
295;SDS011;132;48.770;9.200;2024-01-30T15:24:50;20.80;;;10.65;;
295;SDS011;132;48.770;9.200;2024-01-30T15:27:37;25.67;;;11.07;;
295;SDS011;132;48.770;9.200;2024-01-30T15:30:24;21.42;;;10.07;;
295;SDS011;132;48.770;9.200;2024-01-30T15:33:11;26.23;;;11.63;;
295;SDS011;132;48.770;9.200;2024-01-30T15:36:01;29.95;;;12.00;;
295;SDS011;132;48.770;9.200;2024-01-30T15:38:48;20.10;;;10.98;;
295;SDS011;132;48.770;9.200;2024-01-30T15:41:34;22.27;;;10.27;;
295;SDS011;132;48.770;9.200;2024-01-30T15:44:21;20.48;;;10.43;;
295;SDS011;132;48.770;9.200;2024-01-30T15:47:08;22.88;;;11.20;;
295;SDS011;132;48.770;9.200;2024-01-30T15:49:54;20.65;;;10.90;;
295;SDS011;132;48.770;9.200;2024-01-30T15:52:41;29.75;;;11.02;;
295;SDS011;132;48.770;9.200;2024-01-30T15:55:27;29.23;;;11.20;;
295;SDS011;132;48.770;9.200;2024-01-30T15:58:14;22.65;;;10.80;;
295;SDS011;132;48.770;9.200;2024-01-30T16:01:01;26.02;;;11.25;;
295;SDS011;132;48.770;9.200;2024-01-30T16:03:48;25.95;;;11.90;;
295;SDS011;132;48.770;9.200;2024-01-30T16:06:34;36.70;;;13.10;;
295;SDS011;132;48.770;9.200;2024-01-30T16:09:24;27.42;;;13.50;;
295;SDS011;132;48.770;9.200;2024-01-30T16:12:10;27.52;;;12.23;;
295;SDS011;132;48.770;9.200;2024-01-30T16:14:57;31.02;;;12.82;;
295;SDS011;132;48.770;9.200;2024-01-30T16:17:44;29.95;;;13.35;;
295;SDS011;132;48.770;9.200;2024-01-30T16:20:30;34.35;;;15.25;;
295;SDS011;132;48.770;9.200;2024-01-30T16:23:17;35.00;;;13.70;;
295;SDS011;132;48.770;9.200;2024-01-30T16:26:04;27.80;;;13.30;;
295;SDS011;132;48.770;9.200;2024-01-30T16:28:50;23.60;;;11.73;;
295;SDS011;132;48.770;9.200;2024-01-30T16:31:37;31.70;;;18.40;;
295;SDS011;132;48.770;9.200;2024-01-30T16:34:24;26.85;;;13.35;;
295;SDS011;132;48.770;9.200;2024-01-30T16:37:11;26.42;;;11.90;;
295;SDS011;132;48.770;9.200;2024-01-30T16:39:57;24.88;;;11.80;;
295;SDS011;132;48.770;9.200;2024-01-30T16:42:44;28.05;;;12.13;;
295;SDS011;132;48.770;9.200;2024-01-30T16:45:31;27.80;;;14.75;;
295;SDS011;132;48.770;9.200;2024-01-30T16:48:17;23.90;;;13.85;;
295;SDS011;132;48.770;9.200;2024-01-30T16:51:06;37.30;;;13.13;;
295;SDS011;132;48.770;9.200;2024-01-30T16:53:52;19.13;;;10.70;;
295;SDS011;132;48.770;9.200;2024-01-30T16:56:39;13.50;;;8.43;;
295;SDS011;132;48.770;9.200;2024-01-30T16:59:26;15.95;;;8.25;;
295;SDS011;132;48.770;9.200;2024-01-30T17:02:13;16.70;;;8.35;;
295;SDS011;132;48.770;9.200;2024-01-30T17:05:00;20.73;;;8.23;;
295;SDS011;132;48.770;9.200;2024-01-30T17:07:47;17.13;;;9.30;;
295;SDS011;132;48.770;9.200;2024-01-30T17:10:34;13.18;;;6.53;;
295;SDS011;132;48.770;9.200;2024-01-30T17:13:20;11.80;;;6.00;;
295;SDS011;132;48.770;9.200;2024-01-30T17:16:07;16.70;;;7.95;;
295;SDS011;132;48.770;9.200;2024-01-30T17:18:54;16.83;;;7.97;;
295;SDS011;132;48.770;9.200;2024-01-30T17:21:42;16.00;;;7.60;;
295;SDS011;132;48.770;9.200;2024-01-30T17:24:29;14.07;;;6.30;;
295;SDS011;132;48.770;9.200;2024-01-30T17:27:15;10.90;;;5.80;;
295;SDS011;132;48.770;9.200;2024-01-30T17:30:03;9.70;;;5.45;;
295;SDS011;132;48.770;9.200;2024-01-30T17:32:50;11.55;;;5.78;;
295;SDS011;132;48.770;9.200;2024-01-30T17:35:37;9.10;;;4.88;;